createdAt,value
2019-06-26T00:00:41.971Z,0.00
2019-06-26T00:01:41.974Z,0.00
2019-06-26T00:02:42.001Z,0.00
2019-06-26T00:03:42.023Z,0.00
2019-06-26T00:04:42.049Z,0.00
2019-06-26T00:05:42.072Z,0.00
2019-06-26T00:06:42.099Z,0.00
2019-06-26T00:07:42.122Z,0.00
2019-06-26T00:08:42.146Z,0.00
2019-06-26T00:09:42.173Z,0.00
2019-06-26T00:10:42.197Z,0.00
2019-06-26T00:11:42.220Z,0.00
2019-06-26T00:12:42.249Z,0.00
2019-06-26T00:13:42.270Z,0.00
2019-06-26T00:14:42.297Z,0.00
2019-06-26T00:15:42.320Z,0.00
2019-06-26T00:16:42.346Z,0.00
2019-06-26T00:17:42.373Z,0.00
2019-06-26T00:18:42.474Z,0.00
2019-06-26T00:19:42.422Z,0.00
2019-06-26T00:20:42.443Z,0.00
2019-06-26T00:21:42.469Z,0.00
2019-06-26T00:22:42.498Z,0.00
2019-06-26T00:23:42.519Z,0.00
2019-06-26T00:24:42.542Z,0.00
2019-06-26T00:25:42.573Z,0.00
2019-06-26T00:26:42.590Z,0.00
2019-06-26T00:27:42.617Z,0.00
2019-06-26T00:28:42.642Z,0.00
2019-06-26T00:29:42.666Z,0.00
2019-06-26T00:30:42.693Z,0.00
2019-06-26T00:31:42.799Z,0.00
2019-06-26T00:32:42.797Z,0.00
2019-06-26T00:33:42.983Z,0.00
2019-06-26T00:34:42.857Z,0.00
2019-06-26T00:35:42.873Z,0.00
2019-06-26T00:36:42.845Z,0.00
2019-06-26T00:37:42.868Z,0.00
2019-06-26T00:38:42.888Z,0.00
2019-06-26T00:39:42.913Z,0.00
2019-06-26T00:40:42.936Z,0.00
2019-06-26T00:41:42.962Z,0.00
2019-06-26T00:42:42.991Z,0.00
2019-06-26T00:43:43.061Z,0.00
2019-06-26T00:44:43.035Z,0.00
2019-06-26T00:45:43.061Z,0.00
2019-06-26T00:46:43.094Z,0.00
2019-06-26T00:47:43.110Z,0.00
2019-06-26T00:48:43.135Z,0.00
2019-06-26T00:49:43.161Z,0.00
2019-06-26T00:50:43.183Z,0.00
2019-06-26T00:51:43.210Z,0.00
2019-06-26T00:52:43.232Z,0.00
2019-06-26T00:53:43.257Z,0.00
2019-06-26T00:54:43.282Z,0.00
2019-06-26T00:55:43.307Z,0.00
2019-06-26T00:56:43.331Z,0.00
2019-06-26T00:57:43.356Z,0.00
2019-06-26T00:58:43.381Z,0.00
2019-06-26T00:59:43.408Z,0.00
2019-06-26T01:00:43.427Z,0.00
2019-06-26T01:01:43.452Z,0.00
2019-06-26T01:02:43.541Z,0.00
2019-06-26T01:03:43.503Z,0.00
2019-06-26T01:04:43.526Z,0.00
2019-06-26T01:05:43.550Z,0.00
2019-06-26T01:06:43.577Z,0.00
2019-06-26T01:07:43.600Z,0.00
2019-06-26T01:08:43.627Z,0.00
2019-06-26T01:09:43.676Z,0.00
2019-06-26T01:10:43.673Z,0.00
2019-06-26T01:11:43.700Z,0.00
2019-06-26T01:12:43.721Z,0.00
2019-06-26T01:13:57.385Z,0.00
2019-06-26T01:14:43.773Z,0.00
2019-06-26T01:15:43.794Z,0.00
2019-06-26T01:16:43.821Z,0.00
2019-06-26T01:17:43.844Z,0.00
2019-06-26T01:18:43.870Z,0.00
2019-06-26T01:19:43.893Z,0.00
2019-06-26T01:20:43.918Z,0.00
2019-06-26T01:21:43.941Z,0.00
2019-06-26T01:22:43.979Z,0.00
2019-06-26T01:23:43.991Z,0.00
2019-06-26T01:24:44.013Z,0.00
2019-06-26T01:25:44.039Z,0.00
2019-06-26T01:26:44.063Z,0.00
2019-06-26T01:27:44.271Z,0.00
2019-06-26T01:28:44.113Z,0.00
2019-06-26T01:29:44.139Z,0.00
2019-06-26T01:30:44.163Z,0.00
2019-06-26T01:31:44.187Z,0.00
2019-06-26T01:32:44.215Z,0.00
2019-06-26T01:33:44.285Z,0.00
2019-06-26T01:34:44.257Z,0.00
2019-06-26T01:35:44.286Z,0.00
2019-06-26T01:36:44.308Z,0.00
2019-06-26T01:37:44.331Z,0.00
2019-06-26T01:38:44.359Z,0.00
2019-06-26T01:39:44.380Z,0.00
2019-06-26T01:40:44.404Z,0.00
2019-06-26T01:41:44.429Z,0.00
2019-06-26T01:42:44.453Z,0.00
2019-06-26T01:43:44.477Z,0.00
2019-06-26T01:44:44.501Z,0.00
2019-06-26T01:45:44.526Z,0.00
2019-06-26T01:46:44.549Z,0.00
2019-06-26T01:47:44.588Z,0.00
2019-06-26T01:48:44.599Z,0.00
2019-06-26T01:49:44.696Z,0.00
2019-06-26T01:50:44.698Z,0.00
2019-06-26T01:51:44.691Z,0.00
2019-06-26T01:52:44.766Z,0.00
2019-06-26T01:53:44.779Z,0.00
2019-06-26T01:54:44.765Z,0.00
2019-06-26T01:55:44.827Z,0.00
2019-06-26T01:56:44.791Z,0.00
2019-06-26T01:57:44.818Z,0.00
2019-06-26T01:58:44.841Z,4.00
2019-06-26T01:59:44.866Z,4.00
2019-06-26T02:00:44.887Z,4.00
2019-06-26T02:01:44.916Z,4.00
2019-06-26T02:02:44.943Z,4.00
2019-06-26T02:03:44.963Z,0.00
2019-06-26T02:04:44.993Z,4.00
2019-06-26T02:05:45.008Z,4.00
2019-06-26T02:06:45.036Z,4.00
2019-06-26T02:07:45.059Z,8.00
2019-06-26T02:08:45.083Z,4.00
2019-06-26T02:09:45.107Z,8.00
2019-06-26T02:10:45.131Z,8.00
2019-06-26T02:11:45.153Z,12.00
2019-06-26T02:12:45.178Z,8.00
2019-06-26T02:13:45.202Z,12.00
2019-06-26T02:14:45.226Z,12.00
2019-06-26T02:15:45.254Z,16.00
2019-06-26T02:16:45.272Z,16.00
2019-06-26T02:17:45.303Z,16.00
2019-06-26T02:18:45.321Z,20.00
2019-06-26T02:19:45.348Z,24.00
2019-06-26T02:20:45.373Z,20.00
2019-06-26T02:21:45.396Z,24.00
2019-06-26T02:22:45.421Z,28.00
2019-06-26T02:23:45.445Z,32.00
2019-06-26T02:24:45.468Z,36.00
2019-06-26T02:25:45.509Z,40.00
2019-06-26T02:26:45.516Z,44.00
2019-06-26T02:27:45.539Z,52.00
2019-06-26T02:28:45.565Z,56.00
2019-06-26T02:29:45.588Z,60.00
2019-06-26T02:30:45.613Z,68.00
2019-06-26T02:31:45.635Z,76.00
2019-06-26T02:32:45.659Z,80.00
2019-06-26T02:33:45.690Z,88.00
2019-06-26T02:34:45.707Z,96.00
2019-06-26T02:35:45.731Z,104.00
2019-06-26T02:36:45.756Z,112.00
2019-06-26T02:37:45.802Z,124.00
2019-06-26T02:38:45.804Z,136.00
2019-06-26T02:39:45.828Z,148.00
2019-06-26T02:40:45.853Z,156.00
2019-06-26T02:41:45.875Z,168.00
2019-06-26T02:42:45.902Z,188.00
2019-06-26T02:43:45.926Z,200.00
2019-06-26T02:44:53.434Z,216.00
2019-06-26T02:45:45.973Z,232.00
2019-06-26T02:46:45.997Z,252.00
2019-06-26T02:47:46.024Z,272.00
2019-06-26T02:48:46.046Z,292.00
2019-06-26T02:49:46.074Z,316.00
2019-06-26T02:50:46.092Z,340.00
2019-06-26T02:51:46.121Z,364.00
2019-06-26T02:52:46.139Z,392.00
2019-06-26T02:53:46.163Z,420.00
2019-06-26T02:54:46.190Z,448.00
2019-06-26T02:55:46.213Z,472.00
2019-06-26T02:56:46.236Z,500.00
2019-06-26T02:57:46.263Z,524.00
2019-06-26T02:58:46.302Z,552.00
2019-06-26T02:59:46.307Z,580.00
2019-06-26T03:00:46.330Z,616.00
2019-06-26T03:01:46.356Z,652.00
2019-06-26T03:02:46.381Z,688.00
2019-06-26T03:03:46.422Z,720.00
2019-06-26T03:04:46.427Z,756.00
2019-06-26T03:05:46.451Z,788.00
2019-06-26T03:06:46.475Z,824.00
2019-06-26T03:07:46.500Z,860.00
2019-06-26T03:08:46.547Z,896.00
2019-06-26T03:09:46.611Z,936.00
2019-06-26T03:10:46.602Z,972.00
2019-06-26T03:11:46.682Z,1012.00
2019-06-26T03:12:46.798Z,1060.00
2019-06-26T03:13:46.661Z,1108.00
2019-06-26T03:14:46.666Z,1160.00
2019-06-26T03:15:50.196Z,1216.00
2019-06-26T03:16:46.713Z,1272.00
2019-06-26T03:17:55.254Z,1332.00
2019-06-26T03:18:46.763Z,1392.00
2019-06-26T03:19:46.788Z,1460.00
2019-06-26T03:20:46.809Z,1536.00
2019-06-26T03:21:46.838Z,1608.00
2019-06-26T03:22:46.859Z,1668.00
2019-06-26T03:23:46.881Z,1724.00
2019-06-26T03:24:46.905Z,1764.00
2019-06-26T03:25:46.931Z,1796.00
2019-06-26T03:26:46.962Z,1816.00
2019-06-26T03:27:46.978Z,1828.00
2019-06-26T03:28:47.002Z,1836.00
2019-06-26T03:29:47.025Z,1848.00
2019-06-26T03:30:47.051Z,1848.00
2019-06-26T03:31:47.082Z,1860.00
2019-06-26T03:32:47.097Z,1888.00
2019-06-26T03:33:47.120Z,1936.00
2019-06-26T03:34:47.153Z,2000.00
2019-06-26T03:35:47.168Z,2080.00
2019-06-26T03:36:47.194Z,2148.00
2019-06-26T03:37:47.216Z,2180.00
2019-06-26T03:38:47.241Z,2188.00
2019-06-26T03:39:47.267Z,2192.00
2019-06-26T03:40:47.290Z,2208.00
2019-06-26T03:41:47.310Z,2252.00
2019-06-26T03:42:47.372Z,2308.00
2019-06-26T03:43:47.361Z,2360.00
2019-06-26T03:44:47.384Z,2400.00
2019-06-26T03:45:47.711Z,2424.00
2019-06-26T03:46:47.432Z,2432.00
2019-06-26T03:47:47.469Z,2448.00
2019-06-26T03:48:47.479Z,2464.00
2019-06-26T03:49:47.503Z,2492.00
2019-06-26T03:50:47.535Z,2532.00
2019-06-26T03:51:47.555Z,2560.00
2019-06-26T03:52:47.581Z,2572.00
2019-06-26T03:53:47.601Z,2588.00
2019-06-26T03:54:47.624Z,2600.00
2019-06-26T03:55:47.652Z,2612.00
2019-06-26T03:56:47.673Z,2652.00
2019-06-26T03:57:47.697Z,2708.00
2019-06-26T03:58:47.720Z,2780.00
2019-06-26T03:59:47.746Z,2852.00
2019-06-26T04:00:47.775Z,2928.00
2019-06-26T04:01:47.795Z,2984.00
2019-06-26T04:02:47.818Z,3028.00
2019-06-26T04:03:47.843Z,3068.00
2019-06-26T04:04:47.869Z,3104.00
2019-06-26T04:05:47.890Z,3140.00
2019-06-26T04:06:47.933Z,3180.00
2019-06-26T04:07:47.940Z,3220.00
2019-06-26T04:08:47.963Z,3248.00
2019-06-26T04:09:47.988Z,3280.00
2019-06-26T04:10:48.011Z,3320.00
2019-06-26T04:11:48.037Z,3380.00
2019-06-26T04:12:48.062Z,3444.00
2019-06-26T04:13:48.088Z,3500.00
2019-06-26T04:14:48.106Z,3560.00
2019-06-26T04:15:50.778Z,3608.00
2019-06-26T04:16:48.154Z,3644.00
2019-06-26T04:17:48.188Z,3680.00
2019-06-26T04:18:48.204Z,3716.00
2019-06-26T04:19:48.229Z,3760.00
2019-06-26T04:20:48.252Z,3832.00
2019-06-26T04:21:48.277Z,3900.00
2019-06-26T04:22:48.299Z,3956.00
2019-06-26T04:23:48.325Z,4004.00
2019-06-26T04:24:48.351Z,4048.00
2019-06-26T04:25:48.381Z,4104.00
2019-06-26T04:26:48.409Z,4144.00
2019-06-26T04:27:48.432Z,4184.00
2019-06-26T04:28:48.514Z,4228.00
2019-06-26T04:29:48.505Z,4260.00
2019-06-26T04:30:48.569Z,4292.00
2019-06-26T04:31:48.571Z,4320.00
2019-06-26T04:32:48.564Z,4368.00
2019-06-26T04:33:48.568Z,4436.00
2019-06-26T04:34:48.598Z,4484.00
2019-06-26T04:35:48.619Z,4532.00
2019-06-26T04:36:48.642Z,4564.00
2019-06-26T04:37:48.668Z,4604.00
2019-06-26T04:38:48.688Z,4644.00
2019-06-26T04:39:48.717Z,4680.00
2019-06-26T04:40:48.741Z,4728.00
2019-06-26T04:41:48.783Z,4776.00
2019-06-26T04:42:48.791Z,4820.00
2019-06-26T04:43:48.814Z,4868.00
2019-06-26T04:44:48.837Z,4920.00
2019-06-26T04:45:58.121Z,4972.00
2019-06-26T04:46:48.888Z,5032.00
2019-06-26T04:47:48.911Z,5080.00
2019-06-26T04:48:48.935Z,5128.00
2019-06-26T04:49:48.984Z,5180.00
2019-06-26T04:50:48.985Z,5232.00
2019-06-26T04:51:49.012Z,5288.00
2019-06-26T04:52:49.037Z,5332.00
2019-06-26T04:53:49.061Z,5392.00
2019-06-26T04:54:49.091Z,5440.00
2019-06-26T04:55:49.108Z,5488.00
2019-06-26T04:56:49.132Z,5532.00
2019-06-26T04:57:49.168Z,5592.00
2019-06-26T04:58:49.184Z,5644.00
2019-06-26T04:59:49.207Z,5684.00
2019-06-26T05:00:49.233Z,5736.00
2019-06-26T05:01:49.270Z,5788.00
2019-06-26T05:02:49.281Z,5836.00
2019-06-26T05:03:49.305Z,5892.00
2019-06-26T05:04:49.330Z,5972.00
2019-06-26T05:05:49.356Z,6024.00
2019-06-26T05:06:49.380Z,6044.00
2019-06-26T05:07:49.404Z,6084.00
2019-06-26T05:08:49.430Z,6260.00
2019-06-26T05:09:49.454Z,7652.00
2019-06-26T05:10:49.481Z,7996.00
2019-06-26T05:11:49.507Z,8644.00
2019-06-26T05:12:49.532Z,8864.00
2019-06-26T05:13:49.557Z,9076.00
2019-06-26T05:14:49.580Z,13840.00
2019-06-26T05:15:49.606Z,11680.00
2019-06-26T05:16:49.629Z,10300.00
2019-06-26T05:17:49.657Z,13964.00
2019-06-26T05:18:49.680Z,12956.00
2019-06-26T05:19:49.709Z,14064.00
2019-06-26T05:20:49.728Z,19648.00
2019-06-26T05:21:49.755Z,21568.00
2019-06-26T05:22:49.784Z,22240.00
2019-06-26T05:23:49.805Z,21984.00
2019-06-26T05:24:49.834Z,21568.00
2019-06-26T05:25:49.857Z,19776.00
2019-06-26T05:26:49.885Z,19648.00
2019-06-26T05:27:49.910Z,28672.00
2019-06-26T05:28:49.935Z,35520.00
2019-06-26T05:29:49.963Z,36576.00
2019-06-26T05:30:49.988Z,33120.00
2019-06-26T05:31:50.021Z,34528.00
2019-06-26T05:32:50.045Z,36608.00
2019-06-26T05:33:50.066Z,28640.00
2019-06-26T05:34:50.095Z,15588.00
2019-06-26T05:35:50.121Z,13608.00
2019-06-26T05:36:50.148Z,13504.00
2019-06-26T05:37:50.176Z,11580.00
2019-06-26T05:38:50.203Z,9956.00
2019-06-26T05:39:50.413Z,9420.00
2019-06-26T05:40:50.258Z,10712.00
2019-06-26T05:41:50.286Z,10036.00
2019-06-26T05:42:50.313Z,9536.00
2019-06-26T05:43:50.450Z,8504.00
2019-06-26T05:44:50.431Z,7940.00
2019-06-26T05:45:50.478Z,7948.00
2019-06-26T05:46:50.471Z,7720.00
2019-06-26T05:47:50.487Z,7560.00
2019-06-26T05:48:50.538Z,7592.00
2019-06-26T05:49:50.515Z,7564.00
2019-06-26T05:50:50.538Z,7644.00
2019-06-26T05:51:50.586Z,7724.00
2019-06-26T05:52:50.595Z,8148.00
2019-06-26T05:53:50.618Z,8328.00
2019-06-26T05:54:50.644Z,8144.00
2019-06-26T05:55:50.671Z,8188.00
2019-06-26T05:56:50.703Z,7828.00
2019-06-26T05:57:50.724Z,7804.00
2019-06-26T05:58:50.752Z,7920.00
2019-06-26T05:59:50.783Z,8028.00
2019-06-26T06:00:50.805Z,7976.00
2019-06-26T06:01:50.832Z,7988.00
2019-06-26T06:02:53.743Z,8240.00
2019-06-26T06:03:50.891Z,8216.00
2019-06-26T06:04:50.915Z,9904.00
2019-06-26T06:05:50.943Z,11400.00
2019-06-26T06:06:50.967Z,12988.00
2019-06-26T06:07:51.018Z,12340.00
2019-06-26T06:08:51.023Z,10344.00
2019-06-26T06:09:51.050Z,10468.00
2019-06-26T06:10:51.085Z,12272.00
2019-06-26T06:11:51.109Z,13328.00
2019-06-26T06:12:51.131Z,15672.00
2019-06-26T06:13:51.156Z,16396.00
2019-06-26T06:14:51.189Z,19776.00
2019-06-26T06:15:51.214Z,20160.00
2019-06-26T06:16:51.240Z,13520.00
2019-06-26T06:17:51.271Z,10844.00
2019-06-26T06:18:51.327Z,12232.00
2019-06-26T06:19:51.324Z,29472.00
2019-06-26T06:20:51.351Z,47136.00
2019-06-26T06:21:51.378Z,55904.00
2019-06-26T06:22:51.406Z,58080.00
2019-06-26T06:23:51.436Z,58880.00
2019-06-26T06:24:51.462Z,59968.00
2019-06-26T06:25:51.488Z,62464.00
2019-06-26T06:26:51.531Z,56032.00
2019-06-26T06:27:51.547Z,47456.00
2019-06-26T06:28:51.575Z,39584.00
2019-06-26T06:29:51.606Z,38848.00
2019-06-26T06:30:51.636Z,42048.00
2019-06-26T06:31:51.669Z,52512.00
2019-06-26T06:32:51.696Z,60384.00
2019-06-26T06:33:51.725Z,59456.00
2019-06-26T06:34:51.774Z,55168.00
2019-06-26T06:35:51.787Z,39456.00
2019-06-26T06:36:51.817Z,38048.00
2019-06-26T06:37:51.862Z,51680.00
2019-06-26T06:38:51.885Z,57632.00
2019-06-26T06:39:51.910Z,61280.00
2019-06-26T06:40:51.942Z,62112.00
2019-06-26T06:41:51.998Z,59040.00
2019-06-26T06:42:52.006Z,58048.00
2019-06-26T06:43:52.036Z,61056.00
2019-06-26T06:44:52.108Z,59360.00
2019-06-26T06:45:52.099Z,59360.00
2019-06-26T06:47:03.282Z,58624.00
2019-06-26T06:47:52.164Z,52992.00
2019-06-26T06:48:52.196Z,53632.00
2019-06-26T06:49:52.232Z,51808.00
2019-06-26T06:50:52.333Z,47264.00
2019-06-26T06:51:52.348Z,44992.00
2019-06-26T06:52:52.398Z,40416.00
2019-06-26T06:53:52.400Z,40576.00
2019-06-26T06:54:52.398Z,42784.00
2019-06-26T06:55:52.434Z,43232.00
2019-06-26T06:56:52.464Z,43200.00
2019-06-26T06:57:52.498Z,43680.00
2019-06-26T06:58:52.533Z,44448.00
2019-06-26T06:59:52.568Z,46336.00
2019-06-26T07:00:52.599Z,49632.00
2019-06-26T07:01:52.635Z,53728.00
2019-06-26T07:02:52.673Z,56320.00
2019-06-26T07:03:52.709Z,57440.00
2019-06-26T07:04:52.744Z,57088.00
2019-06-26T07:05:52.778Z,56960.00
2019-06-26T07:06:52.891Z,55904.00
2019-06-26T07:07:52.851Z,56288.00
2019-06-26T07:08:52.883Z,56544.00
2019-06-26T07:09:52.927Z,56992.00
2019-06-26T07:10:52.957Z,58496.00
2019-06-26T07:11:52.991Z,59680.00
2019-06-26T07:12:53.036Z,58816.00
2019-06-26T07:13:53.059Z,58656.00
2019-06-26T07:14:53.098Z,58272.00
2019-06-26T07:15:53.135Z,58848.00
2019-06-26T07:16:53.172Z,60704.00
2019-06-26T07:17:53.208Z,60672.00
2019-06-26T07:18:53.252Z,60608.00
2019-06-26T07:19:53.284Z,60256.00
2019-06-26T07:20:53.319Z,59200.00
2019-06-26T07:21:53.356Z,60064.00
2019-06-26T07:22:53.393Z,59264.00
2019-06-26T07:23:53.437Z,59776.00
2019-06-26T07:24:53.465Z,60416.00
2019-06-26T07:25:53.504Z,60800.00
2019-06-26T07:26:53.548Z,59872.00
2019-06-26T07:27:53.639Z,59904.00
2019-06-26T07:28:53.614Z,61088.00
2019-06-26T07:29:53.654Z,61504.00
2019-06-26T07:30:53.697Z,60992.00
2019-06-26T07:31:53.731Z,62080.00
2019-06-26T07:32:53.766Z,62176.00
2019-06-26T07:33:55.782Z,62144.00
2019-06-26T07:34:53.845Z,59360.00
2019-06-26T07:35:53.881Z,58272.00
2019-06-26T07:36:53.921Z,59232.00
2019-06-26T07:37:53.959Z,60032.00
2019-06-26T07:38:54.002Z,60000.00
2019-06-26T07:39:58.738Z,60896.00
2019-06-26T07:40:54.075Z,60736.00
2019-06-26T07:41:54.117Z,61248.00
2019-06-26T07:42:54.153Z,61472.00
2019-06-26T07:43:54.273Z,61280.00
2019-06-26T07:44:54.278Z,60736.00
2019-06-26T07:45:54.364Z,61952.00
2019-06-26T07:46:54.338Z,63360.00
2019-06-26T07:47:54.355Z,63392.00
2019-06-26T07:48:57.322Z,63712.00
2019-06-26T07:49:54.432Z,63904.00
2019-06-26T07:50:54.466Z,63232.00
2019-06-26T07:51:54.506Z,62368.00
2019-06-26T07:52:54.544Z,62112.00
2019-06-26T07:53:54.599Z,63584.00
2019-06-26T07:54:54.633Z,63264.00
2019-06-26T07:55:54.684Z,63424.00
2019-06-26T07:56:54.709Z,63712.00
2019-06-26T07:57:54.744Z,62080.00
2019-06-26T07:58:54.811Z,61248.00
2019-06-26T07:59:54.875Z,62400.00
2019-06-26T08:00:54.877Z,62432.00
2019-06-26T08:01:54.908Z,60256.00
2019-06-26T08:02:54.946Z,59712.00
2019-06-26T08:03:54.986Z,61728.00
2019-06-26T08:04:55.035Z,63488.00
2019-06-26T08:05:55.067Z,64384.00
2019-06-26T08:06:55.109Z,64320.00
2019-06-26T08:07:55.163Z,64864.00
2019-06-26T08:08:55.225Z,65696.00
2019-06-26T08:09:55.230Z,63456.00
2019-06-26T08:10:55.272Z,65024.00
2019-06-26T08:11:55.380Z,66944.00
2019-06-26T08:12:55.356Z,66080.00
2019-06-26T08:13:55.429Z,65760.00
2019-06-26T08:14:55.434Z,67680.00
2019-06-26T08:15:55.477Z,67232.00
2019-06-26T08:16:55.517Z,65344.00
2019-06-26T08:18:00.622Z,65440.00
2019-06-26T08:18:55.602Z,65696.00
2019-06-26T08:19:55.637Z,65408.00
2019-06-26T08:21:11.443Z,63616.00
2019-06-26T08:21:55.722Z,62496.00
2019-06-26T08:22:55.761Z,63360.00
2019-06-26T08:23:55.806Z,63200.00
2019-06-26T08:24:55.845Z,62624.00
2019-06-26T08:25:55.886Z,63360.00
2019-06-26T08:26:55.928Z,64448.00
2019-06-26T08:27:55.989Z,63616.00
2019-06-26T08:28:56.016Z,62432.00
2019-06-26T08:29:56.053Z,59264.00
2019-06-26T08:30:56.094Z,57664.00
2019-06-26T08:31:56.215Z,63360.00
2019-06-26T08:32:56.218Z,66368.00
2019-06-26T08:33:56.271Z,68096.00
2019-06-26T08:34:56.284Z,67936.00
2019-06-26T08:35:56.304Z,67136.00
2019-06-26T08:36:56.345Z,67296.00
2019-06-26T08:38:09.929Z,69888.00
2019-06-26T08:38:56.431Z,70240.00
2019-06-26T08:39:56.474Z,70624.00
2019-06-26T08:40:56.515Z,70528.00
2019-06-26T08:41:56.558Z,69088.00
2019-06-26T08:42:56.599Z,69664.00
2019-06-26T08:43:56.642Z,70112.00
2019-06-26T08:44:56.684Z,69184.00
2019-06-26T08:45:56.725Z,71296.00
2019-06-26T08:46:56.770Z,72960.00
2019-06-26T08:47:56.813Z,74240.00
2019-06-26T08:48:56.858Z,74848.00
2019-06-26T08:49:56.905Z,74592.00
2019-06-26T08:50:56.941Z,75776.00
2019-06-26T08:51:56.983Z,77440.00
2019-06-26T08:52:57.029Z,78560.00
2019-06-26T08:53:57.075Z,77952.00
2019-06-26T08:54:57.115Z,78848.00
2019-06-26T08:55:57.158Z,80608.00
2019-06-26T08:56:57.201Z,79456.00
2019-06-26T08:57:57.243Z,78688.00
2019-06-26T08:58:57.291Z,78208.00
2019-06-26T08:59:57.328Z,77856.00
2019-06-26T09:00:57.375Z,77472.00
2019-06-26T09:01:57.423Z,75360.00
2019-06-26T09:02:57.459Z,74080.00
2019-06-26T09:03:57.504Z,71136.00
2019-06-26T09:04:57.547Z,71200.00
2019-06-26T09:05:57.591Z,71168.00
2019-06-26T09:06:57.631Z,72096.00
2019-06-26T09:07:57.709Z,73536.00
2019-06-26T09:08:57.720Z,73824.00
2019-06-26T09:09:57.762Z,74688.00
2019-06-26T09:10:57.858Z,75392.00
2019-06-26T09:11:57.851Z,76416.00
2019-06-26T09:12:57.895Z,77280.00
2019-06-26T09:13:57.938Z,77088.00
2019-06-26T09:14:57.983Z,76096.00
2019-06-26T09:15:58.024Z,76256.00
2019-06-26T09:16:58.089Z,78528.00
2019-06-26T09:17:58.158Z,79584.00
2019-06-26T09:18:58.217Z,79616.00
2019-06-26T09:19:58.257Z,79648.00
2019-06-26T09:20:58.247Z,80320.00
2019-06-26T09:21:58.287Z,80512.00
2019-06-26T09:22:58.332Z,82144.00
2019-06-26T09:23:58.385Z,82656.00
2019-06-26T09:24:58.421Z,80960.00
2019-06-26T09:25:58.468Z,80448.00
2019-06-26T09:26:58.512Z,79904.00
2019-06-26T09:27:58.555Z,79904.00
2019-06-26T09:28:58.597Z,79616.00
2019-06-26T09:29:58.643Z,78816.00
2019-06-26T09:30:58.686Z,78368.00
2019-06-26T09:31:58.732Z,77152.00
2019-06-26T09:32:58.778Z,76768.00
2019-06-26T09:33:58.822Z,77664.00
2019-06-26T09:34:58.868Z,78272.00
2019-06-26T09:35:58.911Z,80256.00
2019-06-26T09:36:58.956Z,81792.00
2019-06-26T09:37:59.007Z,81120.00
2019-06-26T09:38:59.047Z,81728.00
2019-06-26T09:39:59.091Z,71936.00
2019-06-26T09:40:59.188Z,72768.00
2019-06-26T09:41:59.178Z,76160.00
2019-06-26T09:42:59.226Z,78208.00
2019-06-26T09:43:59.272Z,77920.00
2019-06-26T09:44:59.319Z,80544.00
2019-06-26T09:45:59.359Z,82432.00
2019-06-26T09:46:59.404Z,82752.00
2019-06-26T09:47:59.452Z,78592.00
2019-06-26T09:48:59.501Z,77824.00
2019-06-26T09:49:59.591Z,79552.00
2019-06-26T09:50:59.586Z,78528.00
2019-06-26T09:51:59.627Z,78208.00
2019-06-26T09:52:59.675Z,78112.00
2019-06-26T09:53:59.718Z,77568.00
2019-06-26T09:54:59.771Z,74880.00
2019-06-26T09:55:59.810Z,76800.00
2019-06-26T09:56:59.859Z,76800.00
2019-06-26T09:57:59.911Z,78592.00
2019-06-26T09:58:59.944Z,80384.00
2019-06-26T09:59:59.996Z,80032.00
2019-06-26T10:01:00.115Z,80480.00
2019-06-26T10:02:00.162Z,77952.00
2019-06-26T10:03:00.171Z,74720.00
2019-06-26T10:04:00.181Z,74464.00
2019-06-26T10:05:00.219Z,78080.00
2019-06-26T10:06:00.266Z,80736.00
2019-06-26T10:07:00.323Z,82624.00
2019-06-26T10:08:00.371Z,83360.00
2019-06-26T10:09:00.403Z,83520.00
2019-06-26T10:10:00.452Z,84096.00
2019-06-26T10:11:00.498Z,85280.00
2019-06-26T10:12:00.547Z,84192.00
2019-06-26T10:13:00.588Z,81344.00
2019-06-26T10:14:00.633Z,80928.00
2019-06-26T10:15:00.680Z,82624.00
2019-06-26T10:16:00.856Z,84192.00
2019-06-26T10:17:00.787Z,83648.00
2019-06-26T10:18:00.818Z,83808.00
2019-06-26T10:19:09.943Z,83552.00
2019-06-26T10:20:00.914Z,84448.00
2019-06-26T10:21:00.962Z,83680.00
2019-06-26T10:22:01.002Z,83200.00
2019-06-26T10:23:01.053Z,81600.00
2019-06-26T10:24:01.280Z,81952.00
2019-06-26T10:25:01.143Z,80928.00
2019-06-26T10:26:01.189Z,81088.00
2019-06-26T10:27:01.233Z,81856.00
2019-06-26T10:28:01.282Z,82048.00
2019-06-26T10:29:01.534Z,81216.00
2019-06-26T10:30:01.383Z,81184.00
2019-06-26T10:31:01.421Z,81152.00
2019-06-26T10:32:01.468Z,79712.00
2019-06-26T10:33:01.514Z,78624.00
2019-06-26T10:34:01.604Z,79744.00
2019-06-26T10:35:01.607Z,79424.00
2019-06-26T10:36:01.656Z,78816.00
2019-06-26T10:37:01.708Z,79296.00
2019-06-26T10:38:01.769Z,80608.00
2019-06-26T10:39:01.905Z,80096.00
2019-06-26T10:40:01.836Z,81088.00
2019-06-26T10:41:01.885Z,81408.00
2019-06-26T10:42:01.932Z,82720.00
2019-06-26T10:43:02.061Z,82016.00
2019-06-26T10:44:02.060Z,81152.00
2019-06-26T10:45:02.187Z,81984.00
2019-06-26T10:46:02.122Z,83328.00
2019-06-26T10:47:02.162Z,83232.00
2019-06-26T10:48:02.217Z,83488.00
2019-06-26T10:49:02.254Z,83648.00
2019-06-26T10:50:02.299Z,82336.00
2019-06-26T10:51:02.375Z,83264.00
2019-06-26T10:52:02.402Z,84256.00
2019-06-26T10:53:02.438Z,83712.00
2019-06-26T10:54:02.484Z,83232.00
2019-06-26T10:55:02.531Z,84256.00
2019-06-26T10:56:02.577Z,82976.00
2019-06-26T10:57:02.623Z,82688.00
2019-06-26T10:58:02.672Z,81792.00
2019-06-26T10:59:02.715Z,83008.00
2019-06-26T11:00:02.762Z,83744.00
2019-06-26T11:01:02.808Z,82784.00
2019-06-26T11:02:02.871Z,83776.00
2019-06-26T11:03:02.899Z,83104.00
2019-06-26T11:04:02.948Z,81632.00
2019-06-26T11:05:02.995Z,80352.00
2019-06-26T11:06:03.038Z,79328.00
2019-06-26T11:07:03.089Z,80896.00
2019-06-26T11:08:03.137Z,80800.00
2019-06-26T11:09:03.176Z,79680.00
2019-06-26T11:10:03.223Z,79104.00
2019-06-26T11:11:03.286Z,79776.00
2019-06-26T11:12:03.317Z,82368.00
2019-06-26T11:13:03.361Z,83744.00
2019-06-26T11:14:03.408Z,81152.00
2019-06-26T11:15:03.459Z,81280.00
2019-06-26T11:16:03.511Z,81728.00
2019-06-26T11:17:03.550Z,82112.00
2019-06-26T11:18:03.593Z,80224.00
2019-06-26T11:19:03.640Z,78368.00
2019-06-26T11:20:03.697Z,79968.00
2019-06-26T11:21:03.764Z,78528.00
2019-06-26T11:22:03.778Z,77952.00
2019-06-26T11:23:03.830Z,76384.00
2019-06-26T11:24:03.896Z,77280.00
2019-06-26T11:25:03.957Z,78112.00
2019-06-26T11:26:04.003Z,77408.00
2019-06-26T11:27:04.072Z,77856.00
2019-06-26T11:28:04.065Z,78432.00
2019-06-26T11:29:04.104Z,77952.00
2019-06-26T11:30:04.155Z,76832.00
2019-06-26T11:31:04.197Z,77632.00
2019-06-26T11:32:04.245Z,79584.00
2019-06-26T11:33:04.299Z,73792.00
2019-06-26T11:34:04.395Z,79104.00
2019-06-26T11:35:04.382Z,79232.00
2019-06-26T11:36:04.429Z,78016.00
2019-06-26T11:37:04.810Z,78112.00
2019-06-26T11:38:04.526Z,78080.00
2019-06-26T11:39:04.575Z,77728.00
2019-06-26T11:40:04.617Z,76512.00
2019-06-26T11:41:04.679Z,75360.00
2019-06-26T11:42:04.708Z,73952.00
2019-06-26T11:43:04.756Z,74976.00
2019-06-26T11:44:04.802Z,75424.00
2019-06-26T11:45:04.848Z,73696.00
2019-06-26T11:46:04.915Z,73408.00
2019-06-26T11:47:04.990Z,74208.00
2019-06-26T11:48:04.992Z,76608.00
2019-06-26T11:49:05.038Z,79552.00
2019-06-26T11:50:05.083Z,80800.00
2019-06-26T11:51:05.132Z,82656.00
2019-06-26T11:52:05.175Z,76704.00
2019-06-26T11:53:05.222Z,79392.00
2019-06-26T11:54:05.277Z,78496.00
2019-06-26T11:55:05.312Z,76480.00
2019-06-26T11:56:05.367Z,75840.00
2019-06-26T11:57:05.427Z,77312.00
2019-06-26T11:58:05.453Z,78624.00
2019-06-26T11:59:05.497Z,77312.00
2019-06-26T12:00:05.710Z,78720.00
2019-06-26T12:01:05.591Z,79712.00
2019-06-26T12:02:05.640Z,78912.00
2019-06-26T12:03:05.684Z,79072.00
2019-06-26T12:04:05.731Z,81248.00
2019-06-26T12:05:05.777Z,78912.00
2019-06-26T12:06:17.924Z,77504.00
2019-06-26T12:07:05.959Z,75744.00
2019-06-26T12:08:05.960Z,74240.00
2019-06-26T12:09:06.024Z,75264.00